KBFI

Boeing Field/King County International Airport

Seattle, Washington, USA

KBFI 110853Z 00000KT 10SM CLR M01/M02 A3033 RMK AO2 SLP268 T10061017 58004

Observed Flight Rules
Dec-11 @ 08:53 UTC (30 minutes ago) Visual Flight Rules
Wind Visibility Clouds
Calm 10 miles
  • Clear skies
Temperatures Readings
Current -1°C / 30°F
Dewpoint -2°C / 28°F
Humidity 93%
Altimeter 30.33" Hg
Pressure 1026.8 hPa
Elevation 4
Observed Flight Rules
Dec-11 @ 08:53 UTC
(30 minutes ago)
VFR
Wind Visibility
Calm 10 miles
Clouds
  • Clear skies
Temperature Dewpoint
-1°C / 30°F -2°C / 28°F
Humidity Altimeter Pressure
93% 30.33" Hg 1026.8 hPa